Main page
METAR-TAF:

METAR-TAF

Airports :

Beauvais–Tillé Airport

Beauvais, France

latitude: 49-28N, longitude: 002-07E, elevation: 109 m

Current weather observation

The report was made 21 minutes ago, at 13:00 UTC
Wind 6 kt from the East
Temperature 6°C
Humidity 45%
Pressure 1034 hPa
Visibility 10 km or more
no clouds below 1500 m and no cumulonimbus

METAR: LFOB 081300Z AUTO 09006KT CAVOK 06/M05 Q1034 NOSIG

Time: 14:21 (13:21 UTC)

Forecast

The report was made 2 hours and 21 minutes ago, at 11:00 UTC
Forecast valid from 08 at 12 UTC to 09 at 12 UTC
Wind 5 kt from the East
Visibility 10 km or more
no clouds below 1500 m and no cumulonimbus
Probability 30% :
Temporary
from 09 at 10 UTC to 09 at 12 UTC
Broken clouds at a height of 1300 ft

TAF: LFOB 081100Z 0812/0912 09005KT CAVOK PROB30 TEMPO 0910/0912 BKN013

Weather observations and forecasts of more than 4000 airports (METAR and TAF reports).

The available stations are represented by yellow and red dots on the map.

Hover mouse over dot to see the name of the station.

Then click to see weather observations and forecasts.

To change the map : click on the green buttons with a black cross to zoom in, on the green button with a dash to zoom out, or on the green arrows for adjacent maps.


METAR-TAF: